createdAt,value
2019-04-11T00:01:34.007Z,51.50
2019-04-11T00:03:53.471Z,50.80
2019-04-11T00:06:23.767Z,51.30
2019-04-11T00:08:54.393Z,51.20
2019-04-11T00:11:24.416Z,51.10
2019-04-11T00:13:53.774Z,51.20
2019-04-11T00:16:34.167Z,51.20
2019-04-11T00:19:03.565Z,51.30
2019-04-11T00:21:32.978Z,51.50
2019-04-11T00:24:02.765Z,51.20
2019-04-11T00:26:34.211Z,51.40
2019-04-11T00:29:04.187Z,51.00
2019-04-11T00:31:33.767Z,51.10
2019-04-11T00:34:03.124Z,51.00
2019-04-11T00:36:32.660Z,51.30
2019-04-11T00:39:02.132Z,51.30
2019-04-11T00:41:32.347Z,51.20
2019-04-11T00:44:02.873Z,51.40
2019-04-11T00:46:32.301Z,51.50
2019-04-11T00:49:04.150Z,51.20
2019-04-11T00:51:34.079Z,51.20
2019-04-11T00:54:04.643Z,51.10
2019-04-11T00:56:34.556Z,51.40
2019-04-11T00:59:05.839Z,51.30
2019-04-11T01:01:35.675Z,51.10
2019-04-11T01:04:05.406Z,51.10
2019-04-11T01:06:36.418Z,51.20
2019-04-11T01:09:06.893Z,51.40
2019-04-11T01:11:37.875Z,51.00
2019-04-11T01:14:07.871Z,51.20
2019-04-11T01:16:48.578Z,51.10
2019-04-11T01:19:18.458Z,51.20
2019-04-11T01:21:50.708Z,51.00
2019-04-11T01:24:20.243Z,51.30
2019-04-11T01:26:49.728Z,51.10
2019-04-11T01:29:19.673Z,51.00
2019-04-11T01:31:56.158Z,50.90
2019-04-11T01:34:26.582Z,51.00
2019-04-11T01:36:56.043Z,51.00
2019-04-11T01:39:57.216Z,51.20
2019-04-11T01:42:29.160Z,51.00
2019-04-11T01:45:05.341Z,51.20
2019-04-11T01:47:47.362Z,51.20
2019-04-11T01:50:21.148Z,50.90
2019-04-11T01:52:50.857Z,51.10
2019-04-11T01:55:20.719Z,51.00
2019-04-11T01:57:50.150Z,50.90
2019-04-11T02:00:54.546Z,50.90
2019-04-11T02:03:33.259Z,51.10
2019-04-11T02:06:02.598Z,51.20
2019-04-11T02:08:32.091Z,51.00
2019-04-11T02:11:01.458Z,51.10
2019-04-11T02:13:32.077Z,51.10
2019-04-11T02:16:02.902Z,51.10
2019-04-11T02:18:32.590Z,51.10
2019-04-11T02:21:03.109Z,51.00
2019-04-11T02:23:43.474Z,51.20
2019-04-11T02:26:22.165Z,50.90
2019-04-11T02:28:51.689Z,51.00
2019-04-11T02:31:22.895Z,51.00
2019-04-11T02:33:52.624Z,51.00
2019-04-11T02:36:22.388Z,51.10
2019-04-11T02:38:55.223Z,51.10
2019-04-11T02:41:23.011Z,51.10
2019-04-11T02:43:52.482Z,51.20
2019-04-11T02:46:34.633Z,51.10
2019-04-11T02:48:54.488Z,51.20
2019-04-11T02:51:24.822Z,50.80
2019-04-11T02:53:56.575Z,51.00
2019-04-11T02:56:25.824Z,51.10
2019-04-11T02:58:56.960Z,50.80
2019-04-11T03:01:26.989Z,51.10
2019-04-11T03:03:59.030Z,50.90
2019-04-11T03:06:28.371Z,51.10
2019-04-11T03:08:59.341Z,51.00
2019-04-11T03:11:30.202Z,50.80
2019-04-11T03:14:01.188Z,51.10
2019-04-11T03:16:42.847Z,51.00
2019-04-11T03:19:17.884Z,51.10
2019-04-11T03:21:38.657Z,51.00
2019-04-11T03:24:06.152Z,51.00
2019-04-11T03:26:35.528Z,51.00
2019-04-11T03:29:06.421Z,51.00
2019-04-11T03:32:18.258Z,50.90
2019-04-11T03:37:15.240Z,51.00
2019-04-11T03:39:28.672Z,51.00
2019-04-11T03:41:54.691Z,51.00
2019-04-11T03:44:18.837Z,51.00
2019-04-11T03:47:01.176Z,51.00
2019-04-11T03:49:24.648Z,50.80
2019-04-11T03:51:45.977Z,51.00
2019-04-11T03:54:15.835Z,51.00
2019-04-11T03:56:53.383Z,51.00
2019-04-11T03:59:23.741Z,51.00
2019-04-11T04:01:54.327Z,51.10
2019-04-11T04:04:26.215Z,51.20
2019-04-11T04:06:57.597Z,51.10
2019-04-11T04:09:28.591Z,51.10
2019-04-11T04:11:59.455Z,51.10
2019-04-11T04:14:34.362Z,51.20
2019-04-11T04:17:23.495Z,51.10
2019-04-11T04:20:27.024Z,51.10
2019-04-11T04:23:19.040Z,51.00
2019-04-11T04:25:49.351Z,51.00
2019-04-11T04:28:19.651Z,51.00
2019-04-11T04:30:51.595Z,51.00
2019-04-11T04:33:22.820Z,51.20
2019-04-11T04:35:53.156Z,51.00
2019-04-11T04:38:23.574Z,51.10
2019-04-11T04:41:13.489Z,50.90
2019-04-11T04:43:31.696Z,51.00
2019-04-11T04:46:18.820Z,51.00
2019-04-11T04:48:34.349Z,51.00
2019-04-11T04:51:08.979Z,50.70
2019-04-11T04:53:35.722Z,51.00
2019-04-11T04:56:06.612Z,50.70
2019-04-11T04:58:42.009Z,50.70
2019-04-11T05:01:12.709Z,50.90
2019-04-11T05:03:42.463Z,50.70
2019-04-11T05:06:14.039Z,51.10
2019-04-11T05:08:45.014Z,50.70
2019-04-11T05:11:15.947Z,51.00
2019-04-11T05:13:49.222Z,50.70
2019-04-11T05:16:17.793Z,51.20
2019-04-11T05:18:48.378Z,50.90
2019-04-11T05:21:19.112Z,51.00
2019-04-11T05:23:48.538Z,51.00
2019-04-11T05:26:17.835Z,50.90
2019-04-11T05:28:47.169Z,51.00
2019-04-11T05:31:22.678Z,50.90
2019-04-11T05:33:52.053Z,50.50
2019-04-11T05:36:22.688Z,50.40
2019-04-11T05:38:52.967Z,50.30
2019-04-11T05:41:23.541Z,50.40
2019-04-11T05:43:53.653Z,50.30
2019-04-11T05:46:31.150Z,50.30
2019-04-11T05:49:13.492Z,50.30
2019-04-11T05:51:47.889Z,50.30
2019-04-11T05:54:18.350Z,50.30
2019-04-11T05:56:53.868Z,50.70
2019-04-11T05:59:23.953Z,50.50
2019-04-11T06:02:01.501Z,50.70
2019-04-11T06:04:42.823Z,50.70
2019-04-11T06:07:23.179Z,50.70
2019-04-11T06:09:55.233Z,50.40
2019-04-11T06:12:46.547Z,50.70
2019-04-11T06:15:27.031Z,50.70
2019-04-11T06:17:56.659Z,50.30
2019-04-11T06:20:59.893Z,50.70
2019-04-11T06:23:54.351Z,50.70
2019-04-11T06:26:49.119Z,50.70
2019-04-11T06:29:26.442Z,50.40
2019-04-11T06:32:13.850Z,50.70
2019-04-11T06:34:49.358Z,50.90
2019-04-11T06:37:46.714Z,50.70
2019-04-11T06:40:23.185Z,50.70
2019-04-11T06:43:11.909Z,50.40
2019-04-11T06:45:49.811Z,50.50
2019-04-11T06:48:35.856Z,50.40
2019-04-11T06:51:23.950Z,50.30
2019-04-11T06:54:19.080Z,50.00
2019-04-11T06:56:50.453Z,50.20
2019-04-11T06:59:27.873Z,50.30
2019-04-11T07:02:16.346Z,50.20
2019-04-11T07:04:47.037Z,50.40
2019-04-11T07:07:16.578Z,50.50
2019-04-11T07:09:59.763Z,50.40
2019-04-11T07:12:55.951Z,50.40
2019-04-11T07:15:29.446Z,50.30
2019-04-11T07:18:16.936Z,50.30
2019-04-11T07:21:03.505Z,50.30
2019-04-11T07:24:10.338Z,50.50
2019-04-11T07:26:45.846Z,50.20
2019-04-11T07:29:33.715Z,50.50
2019-04-11T07:32:13.933Z,50.50
2019-04-11T07:35:05.300Z,50.30
2019-04-11T07:37:41.475Z,50.50
2019-04-11T07:40:31.233Z,50.20
2019-04-11T07:43:12.918Z,50.50
2019-04-11T07:46:07.275Z,50.60
2019-04-11T07:48:40.351Z,50.70
2019-04-11T07:51:27.615Z,50.70
2019-04-11T07:53:58.606Z,50.80
2019-04-11T07:56:52.934Z,50.60
2019-04-11T07:59:56.398Z,50.80
2019-04-11T08:02:48.049Z,50.90
2019-04-11T08:05:35.071Z,50.60
2019-04-11T08:08:28.276Z,50.90
2019-04-11T08:11:03.926Z,50.80
2019-04-11T08:13:38.849Z,50.70
2019-04-11T08:16:26.732Z,50.70
2019-04-11T08:19:22.645Z,50.70
2019-04-11T08:22:01.234Z,51.00
2019-04-11T08:24:36.634Z,50.90
2019-04-11T08:27:25.337Z,50.90
2019-04-11T08:29:58.209Z,50.80
2019-04-11T08:32:40.046Z,51.00
2019-04-11T08:35:37.555Z,51.00
2019-04-11T08:38:09.724Z,50.90
2019-04-11T08:40:45.234Z,51.00
2019-04-11T08:43:21.796Z,51.10
2019-04-11T08:45:58.257Z,51.00
2019-04-11T08:48:28.907Z,51.00
2019-04-11T08:51:03.142Z,51.10
2019-04-11T08:53:51.453Z,51.10
2019-04-11T08:56:29.592Z,51.30
2019-04-11T08:59:25.026Z,51.20
2019-04-11T09:01:54.432Z,51.10
2019-04-11T09:04:36.597Z,51.20
2019-04-11T09:07:07.268Z,51.00
2019-04-11T09:09:41.615Z,51.10
2019-04-11T09:12:14.204Z,51.20
2019-04-11T09:15:02.530Z,51.00
2019-04-11T09:17:56.881Z,51.30
2019-04-11T09:20:38.363Z,51.30
2019-04-11T09:23:19.802Z,51.30
2019-04-11T09:26:20.324Z,51.10
2019-04-11T09:28:54.864Z,51.30
2019-04-11T09:31:43.949Z,51.10
2019-04-11T09:34:30.658Z,51.30
2019-04-11T09:37:07.857Z,51.40
2019-04-11T09:40:05.787Z,51.30
2019-04-11T09:43:05.590Z,51.50
2019-04-11T09:45:51.313Z,51.60
2019-04-11T09:48:44.378Z,51.50
2019-04-11T09:51:40.210Z,51.60
2019-04-11T09:54:17.601Z,51.40
2019-04-11T09:57:04.698Z,51.60
2019-04-11T09:59:51.860Z,51.40
2019-04-11T10:02:46.401Z,51.50
2019-04-11T10:05:18.132Z,51.40
2019-04-11T10:08:06.505Z,51.50
2019-04-11T10:10:53.740Z,51.50
2019-04-11T10:13:41.099Z,51.30
2019-04-11T10:16:32.142Z,51.60
2019-04-11T10:19:07.703Z,51.60
2019-04-11T10:21:39.471Z,51.60
2019-04-11T10:24:40.945Z,51.60
2019-04-11T10:27:16.354Z,51.70
2019-04-11T10:30:04.539Z,51.80
2019-04-11T10:32:39.199Z,51.80
2019-04-11T10:35:43.238Z,51.70
2019-04-11T10:38:14.014Z,51.70
2019-04-11T10:41:08.739Z,51.80
2019-04-11T10:43:38.232Z,51.70
2019-04-11T10:46:27.115Z,51.90
2019-04-11T10:49:05.309Z,51.80
2019-04-11T10:51:43.053Z,51.60
2019-04-11T10:54:13.985Z,51.50
2019-04-11T10:56:53.961Z,51.70
2019-04-11T10:59:27.812Z,51.90
2019-04-11T11:02:12.759Z,51.70
2019-04-11T11:04:48.818Z,51.70
2019-04-11T11:07:21.661Z,51.70
2019-04-11T11:10:11.108Z,51.70
2019-04-11T11:12:57.715Z,51.70
2019-04-11T11:15:31.561Z,51.40
2019-04-11T11:18:53.872Z,51.70
2019-04-11T11:21:02.592Z,51.60
2019-04-11T11:23:49.288Z,51.70
2019-04-11T11:26:29.305Z,51.40
2019-04-11T11:29:18.883Z,51.70
2019-04-11T11:31:57.673Z,51.70
2019-04-11T11:34:34.713Z,51.70
2019-04-11T11:37:25.995Z,51.30
2019-04-11T11:40:16.518Z,51.60
2019-04-11T11:43:03.048Z,51.40
2019-04-11T11:45:58.811Z,51.40
2019-04-11T11:48:37.434Z,51.60
2019-04-11T11:51:27.037Z,51.70
2019-04-11T11:54:08.128Z,51.70
2019-04-11T11:56:38.625Z,51.50
2019-04-11T11:59:30.402Z,51.40
2019-04-11T12:02:07.018Z,51.60
2019-04-11T12:05:10.481Z,51.60
2019-04-11T12:07:47.642Z,51.40
2019-04-11T12:10:24.237Z,51.40
2019-04-11T12:13:15.235Z,51.50
2019-04-11T12:16:03.771Z,51.50
2019-04-11T12:18:56.480Z,51.40
2019-04-11T12:21:30.988Z,51.40
2019-04-11T12:24:19.525Z,51.40
2019-04-11T12:27:00.091Z,51.30
2019-04-11T12:29:47.020Z,51.40
2019-04-11T12:32:17.868Z,51.50
2019-04-11T12:34:57.726Z,51.30
2019-04-11T12:37:32.118Z,51.50
2019-04-11T12:40:19.288Z,51.40
2019-04-11T12:42:48.743Z,51.40
2019-04-11T12:45:42.960Z,51.30
2019-04-11T12:48:12.711Z,51.50
2019-04-11T12:50:59.823Z,51.40
2019-04-11T12:53:29.296Z,51.50
2019-04-11T12:56:20.043Z,51.40
2019-04-11T12:59:04.051Z,51.30
2019-04-11T13:02:07.445Z,51.30
2019-04-11T13:04:44.176Z,51.20
2019-04-11T13:07:31.163Z,51.30
2019-04-11T13:10:04.902Z,51.40
2019-04-11T13:12:51.868Z,51.40
2019-04-11T13:15:40.258Z,51.10
2019-04-11T13:18:46.871Z,51.30
2019-04-11T13:21:47.108Z,51.00
2019-04-11T13:24:41.384Z,51.30
2019-04-11T13:27:38.827Z,51.10
2019-04-11T13:30:44.870Z,51.20
2019-04-11T13:33:17.975Z,50.90
2019-04-11T13:36:06.490Z,51.00
2019-04-11T13:38:44.179Z,50.80
2019-04-11T13:41:31.384Z,50.90
2019-04-11T13:44:34.598Z,51.00
2019-04-11T13:47:37.852Z,51.10
2019-04-11T13:50:16.475Z,51.00
2019-04-11T13:52:57.098Z,51.10
2019-04-11T13:55:28.608Z,50.90
2019-04-11T13:58:16.996Z,51.10
2019-04-11T14:00:53.702Z,51.10
2019-04-11T14:03:47.932Z,51.00
2019-04-11T14:06:20.251Z,51.00
2019-04-11T14:09:02.140Z,51.10
2019-04-11T14:11:33.643Z,50.90
2019-04-11T14:14:12.307Z,51.30
2019-04-11T14:16:47.208Z,51.30
2019-04-11T14:19:42.063Z,51.20
2019-04-11T14:22:13.754Z,51.10
2019-04-11T14:24:57.554Z,50.90
2019-04-11T14:27:26.772Z,51.10
2019-04-11T14:30:12.303Z,51.10
2019-04-11T14:32:45.077Z,51.20
2019-04-11T14:35:36.922Z,51.10
2019-04-11T14:38:10.956Z,51.30
2019-04-11T14:41:01.562Z,51.30
2019-04-11T14:43:27.232Z,51.10
2019-04-11T14:46:24.479Z,51.40
2019-04-11T14:48:59.949Z,51.30
2019-04-11T14:51:54.655Z,51.10
2019-04-11T14:54:28.336Z,51.20
2019-04-11T14:57:03.009Z,51.20
2019-04-11T14:59:38.112Z,51.20
2019-04-11T15:02:12.402Z,51.10
2019-04-11T15:04:59.231Z,51.00
2019-04-11T15:07:29.807Z,51.00
2019-04-11T15:10:07.149Z,50.90
2019-04-11T15:12:40.771Z,50.90
2019-04-11T15:15:28.000Z,50.90
2019-04-11T15:17:59.550Z,51.10
2019-04-11T15:20:54.703Z,50.90
2019-04-11T15:23:37.713Z,51.20
2019-04-11T15:26:26.475Z,51.10
2019-04-11T15:29:02.942Z,51.00
2019-04-11T15:31:51.186Z,50.90
2019-04-11T15:34:39.626Z,51.10
2019-04-11T15:37:39.578Z,51.10
2019-04-11T15:40:11.076Z,50.70
2019-04-11T15:42:50.975Z,51.10
2019-04-11T15:45:36.599Z,50.90
2019-04-11T15:48:27.840Z,50.90
2019-04-11T15:51:14.841Z,51.10
2019-04-11T15:54:06.897Z,50.90
2019-04-11T15:56:47.830Z,50.80
2019-04-11T15:59:29.858Z,51.00
2019-04-11T16:02:33.139Z,50.80
2019-04-11T16:05:31.658Z,51.00
2019-04-11T16:08:29.188Z,50.70
2019-04-11T16:11:17.501Z,50.70
2019-04-11T16:14:05.965Z,50.50
2019-04-11T16:16:57.688Z,50.70
2019-04-11T16:19:47.844Z,50.60
2019-04-11T16:22:34.607Z,50.70
2019-04-11T16:25:07.462Z,50.70
2019-04-11T16:27:55.706Z,50.60
2019-04-11T16:30:25.111Z,50.70
2019-04-11T16:33:08.227Z,50.60
2019-04-11T16:35:57.270Z,50.50
2019-04-11T16:38:30.290Z,50.60
2019-04-11T16:41:17.024Z,50.80
2019-04-11T16:43:49.789Z,50.80
2019-04-11T16:46:47.189Z,50.40
2019-04-11T16:49:16.575Z,50.80
2019-04-11T16:51:45.869Z,50.60
2019-04-11T16:54:15.136Z,50.50
2019-04-11T16:56:44.613Z,50.40
2019-04-11T16:59:14.075Z,50.50
2019-04-11T17:01:43.599Z,50.50
2019-04-11T17:04:13.049Z,50.60
2019-04-11T17:07:10.478Z,50.60
2019-04-11T17:09:43.351Z,50.60
2019-04-11T17:12:12.734Z,50.40
2019-04-11T17:14:42.242Z,50.60
2019-04-11T17:17:15.260Z,50.30
2019-04-11T17:19:42.899Z,50.70
2019-04-11T17:22:12.419Z,50.70
2019-04-11T17:24:47.796Z,50.30
2019-04-11T17:27:14.886Z,50.40
2019-04-11T17:29:44.380Z,50.50
2019-04-11T17:32:14.045Z,50.40
2019-04-11T17:34:43.553Z,50.20
2019-04-11T17:37:12.917Z,50.30
2019-04-11T17:39:42.486Z,50.10
2019-04-11T17:42:13.380Z,50.50
2019-04-11T17:44:43.012Z,50.20
2019-04-11T17:47:12.338Z,50.40
2019-04-11T17:49:46.931Z,50.10
2019-04-11T17:52:16.187Z,50.50
2019-04-11T17:54:45.921Z,50.00
2019-04-11T17:57:15.246Z,50.30
2019-04-11T17:59:44.541Z,50.40
2019-04-11T18:02:15.420Z,50.40
2019-04-11T18:04:47.799Z,49.90
2019-04-11T18:07:17.642Z,50.00
2019-04-11T18:09:46.848Z,49.80
2019-04-11T18:12:16.254Z,50.00
2019-04-11T18:14:45.718Z,50.00
2019-04-11T18:17:16.448Z,50.30
2019-04-11T18:19:45.953Z,50.00
2019-04-11T18:22:15.516Z,50.10
2019-04-11T18:24:45.001Z,50.20
2019-04-11T18:27:21.735Z,50.10
2019-04-11T18:29:52.656Z,50.10
2019-04-11T18:32:20.837Z,49.60
2019-04-11T18:34:50.365Z,50.10
2019-04-11T18:37:19.892Z,49.90
2019-04-11T18:39:49.386Z,50.30
2019-04-11T18:42:18.998Z,50.10
2019-04-11T18:44:48.356Z,49.90
2019-04-11T18:47:17.720Z,50.20
2019-04-11T18:49:48.002Z,50.00
2019-04-11T18:52:25.452Z,50.10
2019-04-11T18:54:54.023Z,50.00
2019-04-11T18:57:23.486Z,50.00
2019-04-11T18:59:52.752Z,50.10
2019-04-11T19:02:22.125Z,50.00
2019-04-11T19:04:52.844Z,50.20
2019-04-11T19:07:29.776Z,49.90
2019-04-11T19:09:59.246Z,50.00
2019-04-11T19:12:28.709Z,49.80
2019-04-11T19:14:58.894Z,49.80
2019-04-11T19:17:30.356Z,50.00
2019-04-11T19:19:59.269Z,50.00
2019-04-11T19:22:37.416Z,49.90
2019-04-11T19:24:59.448Z,49.70
2019-04-11T19:27:28.869Z,49.40
2019-04-11T19:29:58.283Z,49.70
2019-04-11T19:32:27.627Z,49.70
2019-04-11T19:34:57.066Z,49.50
2019-04-11T19:37:26.432Z,49.40
2019-04-11T19:39:55.946Z,49.90
2019-04-11T19:42:25.377Z,49.80
2019-04-11T19:44:54.572Z,49.70
2019-04-11T19:47:23.989Z,49.80
2019-04-11T19:50:05.301Z,49.80
2019-04-11T19:52:45.207Z,49.30
2019-04-11T19:55:24.418Z,49.50
2019-04-11T19:57:53.715Z,49.80
2019-04-11T20:00:24.377Z,49.70
2019-04-11T20:02:58.951Z,49.60
2019-04-11T20:05:28.363Z,49.60
2019-04-11T20:07:57.752Z,49.40
2019-04-11T20:10:30.569Z,49.70
2019-04-11T20:12:59.082Z,49.50
2019-04-11T20:15:36.914Z,49.70
2019-04-11T20:18:00.342Z,49.70
2019-04-11T20:20:29.596Z,49.60
2019-04-11T20:22:59.553Z,49.50
2019-04-11T20:25:29.054Z,49.20
2019-04-11T20:27:58.525Z,49.60
2019-04-11T20:30:28.051Z,49.60
2019-04-11T20:32:57.297Z,49.30
2019-04-11T20:35:29.093Z,49.40
2019-04-11T20:37:57.948Z,49.40
2019-04-11T20:40:27.393Z,49.50
2019-04-11T20:42:56.794Z,49.20
2019-04-11T20:45:28.513Z,49.40
2019-04-11T20:48:00.396Z,49.30
2019-04-11T20:50:29.499Z,49.20
2019-04-11T20:53:03.153Z,48.90
2019-04-11T20:55:30.044Z,49.10
2019-04-11T20:57:59.837Z,49.30
2019-04-11T21:00:29.322Z,49.00
2019-04-11T21:02:59.046Z,49.10
2019-04-11T21:05:30.496Z,49.10
2019-04-11T21:08:02.656Z,49.10
2019-04-11T21:10:31.852Z,49.30
2019-04-11T21:13:02.123Z,48.80
2019-04-11T21:15:31.628Z,49.10
2019-04-11T21:18:01.131Z,49.10
2019-04-11T21:20:30.600Z,49.10
2019-04-11T21:22:59.966Z,49.20
2019-04-11T21:25:29.390Z,49.10
2019-04-11T21:27:59.178Z,49.00
2019-04-11T21:30:30.304Z,49.20
2019-04-11T21:33:03.653Z,48.60
2019-04-11T21:35:33.985Z,49.10
2019-04-11T21:38:03.642Z,49.00
2019-04-11T21:40:35.640Z,49.10
2019-04-11T21:43:06.183Z,49.00
2019-04-11T21:45:36.531Z,49.20
2019-04-11T21:48:06.875Z,49.20
2019-04-11T21:50:40.285Z,48.90
2019-04-11T21:53:07.260Z,49.00
2019-04-11T21:55:36.571Z,49.00
2019-04-11T21:58:05.861Z,49.10
2019-04-11T22:00:40.873Z,48.90
2019-04-11T22:03:10.401Z,49.10
2019-04-11T22:05:40.111Z,49.10
2019-04-11T22:08:09.385Z,49.00
2019-04-11T22:10:41.091Z,49.00
2019-04-11T22:13:10.822Z,49.10
2019-04-11T22:15:42.465Z,48.90
2019-04-11T22:18:15.942Z,48.70
2019-04-11T22:20:47.092Z,49.10
2019-04-11T22:23:16.493Z,48.80
2019-04-11T22:25:45.711Z,48.70
2019-04-11T22:28:15.167Z,48.90
2019-04-11T22:30:44.946Z,49.00
2019-04-11T22:33:27.613Z,48.90
2019-04-11T22:35:59.333Z,48.90
2019-04-11T22:38:30.526Z,48.80
2019-04-11T22:41:01.525Z,48.80
2019-04-11T22:43:30.410Z,48.60
2019-04-11T22:46:00.905Z,48.80
2019-04-11T22:48:30.134Z,48.80
2019-04-11T22:50:59.589Z,48.80
2019-04-11T22:53:29.052Z,48.80
2019-04-11T22:55:58.601Z,48.90
2019-04-11T22:58:27.996Z,48.50
2019-04-11T23:00:57.319Z,48.80
2019-04-11T23:03:33.482Z,48.90
2019-04-11T23:06:02.897Z,49.00
2019-04-11T23:08:32.128Z,48.50
2019-04-11T23:11:01.584Z,48.50
2019-04-11T23:13:31.002Z,48.70
2019-04-11T23:16:00.563Z,48.60
2019-04-11T23:18:34.964Z,48.90
2019-04-11T23:21:04.778Z,48.60
2019-04-11T23:23:34.141Z,48.80
2019-04-11T23:26:03.919Z,48.80
2019-04-11T23:28:33.344Z,48.50
2019-04-11T23:31:02.618Z,48.60
2019-04-11T23:33:31.981Z,48.70
2019-04-11T23:36:01.447Z,48.80
2019-04-11T23:38:30.726Z,48.70
2019-04-11T23:40:59.970Z,48.50
2019-04-11T23:43:29.343Z,48.90
2019-04-11T23:45:58.674Z,48.50
2019-04-11T23:48:28.196Z,48.50
2019-04-11T23:50:59.334Z,48.70
2019-04-11T23:53:29.282Z,48.70
2019-04-11T23:56:00.148Z,48.50
2019-04-11T23:58:32.097Z,48.60
